createdAt,value
2019-01-28T00:00:26.773Z,4.20
2019-01-28T00:01:31.447Z,4.20
2019-01-28T00:02:35.986Z,4.20
2019-01-28T00:03:40.375Z,4.10
2019-01-28T00:04:44.830Z,4.10
2019-01-28T00:05:49.174Z,4.10
2019-01-28T00:06:53.568Z,4.10
2019-01-28T00:07:57.965Z,4.10
2019-01-28T00:09:03.239Z,4.10
2019-01-28T00:10:07.826Z,4.10
2019-01-28T00:11:12.554Z,4.10
2019-01-28T00:12:16.986Z,4.00
2019-01-28T00:13:21.456Z,4.00
2019-01-28T00:14:25.825Z,4.10
2019-01-28T00:15:30.269Z,4.10
2019-01-28T00:16:34.780Z,4.10
2019-01-28T00:17:39.876Z,4.10
2019-01-28T00:18:44.241Z,4.10
2019-01-28T00:19:48.824Z,4.10
2019-01-28T00:20:53.282Z,4.10
2019-01-28T00:21:57.901Z,4.10
2019-01-28T00:23:02.297Z,4.00
2019-01-28T00:24:06.762Z,4.10
2019-01-28T00:25:11.794Z,4.00
2019-01-28T00:26:16.257Z,4.10
2019-01-28T00:27:20.649Z,4.10
2019-01-28T00:28:25.066Z,4.00
2019-01-28T00:29:29.677Z,4.10
2019-01-28T00:30:34.171Z,4.10
2019-01-28T00:31:38.614Z,4.10
2019-01-28T00:32:42.993Z,4.10
2019-01-28T00:33:47.460Z,4.10
2019-01-28T00:34:52.043Z,4.10
2019-01-28T00:35:56.737Z,4.10
2019-01-28T00:37:01.131Z,4.10
2019-01-28T00:38:05.585Z,4.10
2019-01-28T00:39:10.888Z,4.10
2019-01-28T00:40:15.583Z,4.10
2019-01-28T00:41:19.984Z,4.10
2019-01-28T00:42:24.406Z,4.10
2019-01-28T00:43:29.162Z,4.10
2019-01-28T00:44:33.615Z,4.10
2019-01-28T00:45:38.015Z,4.10
2019-01-28T00:46:42.494Z,4.10
2019-01-28T00:47:46.882Z,4.10
2019-01-28T00:48:51.260Z,4.00
2019-01-28T00:49:55.796Z,4.10
2019-01-28T00:51:00.167Z,4.10
2019-01-28T00:52:04.620Z,4.10
2019-01-28T00:53:09.143Z,4.10
2019-01-28T00:54:13.783Z,4.10
2019-01-28T00:55:18.162Z,4.00
2019-01-28T00:56:22.586Z,4.00
2019-01-28T00:57:27.007Z,4.00
2019-01-28T00:58:31.431Z,4.00
2019-01-28T00:59:35.808Z,4.00
2019-01-28T01:00:40.219Z,4.00
2019-01-28T01:01:44.694Z,4.00
2019-01-28T01:02:49.108Z,4.00
2019-01-28T01:03:53.551Z,3.90
2019-01-28T01:04:57.967Z,4.00
2019-01-28T01:06:02.382Z,3.90
2019-01-28T01:07:06.959Z,3.90
2019-01-28T01:08:12.176Z,3.90
2019-01-28T01:09:16.600Z,3.90
2019-01-28T01:10:21.054Z,3.90
2019-01-28T01:11:25.431Z,3.90
2019-01-28T01:12:29.849Z,3.90
2019-01-28T01:13:34.210Z,3.90
2019-01-28T01:14:38.646Z,3.90
2019-01-28T01:15:43.159Z,3.90
2019-01-28T01:16:47.593Z,3.90
2019-01-28T01:17:51.946Z,3.90
2019-01-28T01:18:56.273Z,3.80
2019-01-28T01:20:00.789Z,3.80
2019-01-28T01:21:05.286Z,3.80
2019-01-28T01:22:09.789Z,3.90
2019-01-28T01:23:14.502Z,3.90
2019-01-28T01:24:18.831Z,3.90
2019-01-28T01:25:23.380Z,3.90
2019-01-28T01:26:27.741Z,3.80
2019-01-28T01:27:32.123Z,3.90
2019-01-28T01:28:36.635Z,3.80
2019-01-28T01:29:41.002Z,3.80
2019-01-28T01:30:45.478Z,3.80
2019-01-28T01:31:49.898Z,3.80
2019-01-28T01:32:54.372Z,3.80
2019-01-28T01:33:58.983Z,3.80
2019-01-28T01:35:03.377Z,3.80
2019-01-28T01:36:07.937Z,3.80
2019-01-28T01:37:13.070Z,3.80
2019-01-28T01:38:17.420Z,3.80
2019-01-28T01:39:21.766Z,3.80
2019-01-28T01:40:26.208Z,3.80
2019-01-28T01:41:30.635Z,3.80
2019-01-28T01:42:35.277Z,3.80
2019-01-28T01:43:39.670Z,3.90
2019-01-28T01:44:44.023Z,3.80
2019-01-28T01:45:48.467Z,3.90
2019-01-28T01:46:53.595Z,3.80
2019-01-28T01:47:58.587Z,3.80
2019-01-28T01:49:03.003Z,3.80
2019-01-28T01:50:08.615Z,3.70
2019-01-28T01:51:13.495Z,3.80
2019-01-28T01:52:17.899Z,3.70
2019-01-28T01:53:22.332Z,3.70
2019-01-28T01:54:26.962Z,3.70
2019-01-28T01:55:31.349Z,3.70
2019-01-28T01:56:35.929Z,3.70
2019-01-28T01:57:40.308Z,3.70
2019-01-28T01:58:44.679Z,3.80
2019-01-28T01:59:49.089Z,3.80
2019-01-28T02:00:53.598Z,3.80
2019-01-28T02:01:57.986Z,3.80
2019-01-28T02:03:02.463Z,3.80
2019-01-28T02:04:06.879Z,3.80
2019-01-28T02:05:11.670Z,3.80
2019-01-28T02:06:16.026Z,3.70
2019-01-28T02:07:20.501Z,3.70
2019-01-28T02:08:24.913Z,3.70
2019-01-28T02:09:29.363Z,3.70
2019-01-28T02:10:33.770Z,3.70
2019-01-28T02:11:38.114Z,3.70
2019-01-28T02:12:42.496Z,3.70
2019-01-28T02:13:46.834Z,3.70
2019-01-28T02:14:51.190Z,3.60
2019-01-28T02:15:55.555Z,3.70
2019-01-28T02:17:00.027Z,3.70
2019-01-28T02:18:04.384Z,3.60
2019-01-28T02:19:08.856Z,3.60
2019-01-28T02:20:13.828Z,3.70
2019-01-28T02:21:18.924Z,3.70
2019-01-28T02:22:23.261Z,3.70
2019-01-28T02:23:27.667Z,3.70
2019-01-28T02:24:32.005Z,3.70
2019-01-28T02:25:36.445Z,3.60
2019-01-28T02:26:40.792Z,3.70
2019-01-28T02:27:45.463Z,3.60
2019-01-28T02:28:50.192Z,3.60
2019-01-28T02:29:54.525Z,3.60
2019-01-28T02:30:58.874Z,3.60
2019-01-28T02:32:03.228Z,3.60
2019-01-28T02:33:07.741Z,3.60
2019-01-28T02:34:12.824Z,3.60
2019-01-28T02:35:17.135Z,3.60
2019-01-28T02:36:21.619Z,3.60
2019-01-28T02:37:26.380Z,3.50
2019-01-28T02:38:30.786Z,3.50
2019-01-28T02:39:35.241Z,3.60
2019-01-28T02:40:39.610Z,3.60
2019-01-28T02:41:44.107Z,3.60
2019-01-28T02:42:48.473Z,3.60
2019-01-28T02:43:52.952Z,3.50
2019-01-28T02:44:57.406Z,3.50
2019-01-28T02:46:02.079Z,3.50
2019-01-28T02:47:06.456Z,3.40
2019-01-28T02:48:11.316Z,3.40
2019-01-28T02:49:15.734Z,3.40
2019-01-28T02:50:20.131Z,3.50
2019-01-28T02:51:24.467Z,3.50
2019-01-28T02:52:28.840Z,3.40
2019-01-28T02:53:33.254Z,3.40
2019-01-28T02:54:37.700Z,3.40
2019-01-28T02:55:42.058Z,3.40
2019-01-28T02:56:46.520Z,3.40
2019-01-28T02:57:51.132Z,3.40
2019-01-28T02:58:55.523Z,3.40
2019-01-28T02:59:59.918Z,3.40
2019-01-28T03:01:04.448Z,3.40
2019-01-28T03:02:08.835Z,3.30
2019-01-28T03:03:13.960Z,3.40
2019-01-28T03:04:18.359Z,3.40
2019-01-28T03:05:22.760Z,3.40
2019-01-28T03:06:27.119Z,3.40
2019-01-28T03:07:31.613Z,3.30
2019-01-28T03:08:36.186Z,3.30
2019-01-28T03:09:41.829Z,3.30
2019-01-28T03:10:46.197Z,3.20
2019-01-28T03:11:50.704Z,3.30
2019-01-28T03:12:55.098Z,3.30
2019-01-28T03:14:01.588Z,3.20
2019-01-28T03:15:06.272Z,3.30
2019-01-28T03:16:11.016Z,3.20
2019-01-28T03:17:15.340Z,3.20
2019-01-28T03:18:19.922Z,3.20
2019-01-28T03:19:24.261Z,3.20
2019-01-28T03:20:28.627Z,3.20
2019-01-28T03:21:33.014Z,3.20
2019-01-28T03:22:37.423Z,3.20
2019-01-28T03:23:41.848Z,3.20
2019-01-28T03:24:46.418Z,3.20
2019-01-28T03:25:50.889Z,3.20
2019-01-28T03:26:55.310Z,3.20
2019-01-28T03:27:59.933Z,3.20
2019-01-28T03:29:04.433Z,3.20
2019-01-28T03:30:12.005Z,3.20
2019-01-28T03:31:16.564Z,3.20
2019-01-28T03:32:21.068Z,3.20
2019-01-28T03:33:25.423Z,3.20
2019-01-28T03:34:29.794Z,3.20
2019-01-28T03:35:34.239Z,3.20
2019-01-28T03:36:38.640Z,3.20
2019-01-28T03:37:43.026Z,3.20
2019-01-28T03:38:47.500Z,3.20
2019-01-28T03:39:51.863Z,3.20
2019-01-28T03:40:56.233Z,3.20
2019-01-28T03:42:01.101Z,3.10
2019-01-28T03:43:05.600Z,3.10
2019-01-28T03:44:10.283Z,3.10
2019-01-28T03:45:16.515Z,3.00
2019-01-28T03:46:20.879Z,3.10
2019-01-28T03:47:25.404Z,3.10
2019-01-28T03:48:29.803Z,3.10
2019-01-28T03:49:34.359Z,3.10
2019-01-28T03:50:38.832Z,3.10
2019-01-28T03:51:43.216Z,3.00
2019-01-28T03:52:47.931Z,3.00
2019-01-28T03:53:52.274Z,3.10
2019-01-28T03:54:57.063Z,3.00
2019-01-28T03:56:01.644Z,3.10
2019-01-28T03:57:06.094Z,3.10
2019-01-28T03:58:10.772Z,3.00
2019-01-28T03:59:15.243Z,3.00
2019-01-28T04:00:21.456Z,3.00
2019-01-28T04:01:26.654Z,3.00
2019-01-28T04:02:31.286Z,3.10
2019-01-28T04:03:35.686Z,3.10
2019-01-28T04:04:40.325Z,3.10
2019-01-28T04:05:44.743Z,3.10
2019-01-28T04:06:49.240Z,3.00
2019-01-28T04:07:53.637Z,3.00
2019-01-28T04:08:58.039Z,3.00
2019-01-28T04:10:02.790Z,3.00
2019-01-28T04:11:07.139Z,3.00
2019-01-28T04:12:12.187Z,3.00
2019-01-28T04:13:16.644Z,3.00
2019-01-28T04:14:21.017Z,3.00
2019-01-28T04:15:26.512Z,3.00
2019-01-28T04:16:30.909Z,3.10
2019-01-28T04:17:35.567Z,3.00
2019-01-28T04:18:40.030Z,3.00
2019-01-28T04:19:44.414Z,3.10
2019-01-28T04:20:49.109Z,3.10
2019-01-28T04:21:53.534Z,3.10
2019-01-28T04:22:57.908Z,3.00
2019-01-28T04:24:02.631Z,3.00
2019-01-28T04:25:08.127Z,3.00
2019-01-28T04:26:13.077Z,3.00
2019-01-28T04:27:17.701Z,3.00
2019-01-28T04:28:22.073Z,3.00
2019-01-28T04:29:26.498Z,3.00
2019-01-28T04:30:30.823Z,3.00
2019-01-28T04:31:35.676Z,3.00
2019-01-28T04:32:40.092Z,3.00
2019-01-28T04:33:44.448Z,3.00
2019-01-28T04:34:48.873Z,3.00
2019-01-28T04:35:53.315Z,3.00
2019-01-28T04:36:57.660Z,3.00
2019-01-28T04:38:02.508Z,3.00
2019-01-28T04:39:08.865Z,3.00
2019-01-28T04:40:14.689Z,3.00
2019-01-28T04:41:19.079Z,3.00
2019-01-28T04:42:23.486Z,2.90
2019-01-28T04:43:27.854Z,3.00
2019-01-28T04:44:32.213Z,3.00
2019-01-28T04:45:36.575Z,3.00
2019-01-28T04:46:41.212Z,3.00
2019-01-28T04:47:45.676Z,3.10
2019-01-28T04:48:50.275Z,3.00
2019-01-28T04:49:54.725Z,3.00
2019-01-28T04:50:59.070Z,3.00
2019-01-28T04:52:06.620Z,2.90
2019-01-28T04:53:12.511Z,3.00
2019-01-28T04:54:17.187Z,3.00
2019-01-28T04:55:22.137Z,3.00
2019-01-28T04:56:27.014Z,2.90
2019-01-28T04:57:31.535Z,2.90
2019-01-28T04:58:35.870Z,3.00
2019-01-28T04:59:44.347Z,3.00
2019-01-28T05:00:49.030Z,3.00
2019-01-28T05:01:53.377Z,3.00
2019-01-28T05:02:57.907Z,2.90
2019-01-28T05:04:02.651Z,2.90
2019-01-28T05:05:07.594Z,2.90
2019-01-28T05:06:12.790Z,2.90
2019-01-28T05:07:17.193Z,2.90
2019-01-28T05:08:21.555Z,2.80
2019-01-28T05:09:26.013Z,2.90
2019-01-28T05:10:30.457Z,2.80
2019-01-28T05:11:34.941Z,2.90
2019-01-28T05:12:39.549Z,2.90
2019-01-28T05:13:44.009Z,3.00
2019-01-28T05:14:48.620Z,3.00
2019-01-28T05:15:53.184Z,3.00
2019-01-28T05:16:57.697Z,2.90
2019-01-28T05:18:02.146Z,3.00
2019-01-28T05:19:06.630Z,3.00
2019-01-28T05:21:04.652Z,3.00
2019-01-28T05:22:09.048Z,3.00
2019-01-28T05:23:14.855Z,3.00
2019-01-28T05:24:19.245Z,3.00
2019-01-28T05:25:23.660Z,3.00
2019-01-28T05:26:28.120Z,3.00
2019-01-28T05:27:32.465Z,3.00
2019-01-28T05:28:36.831Z,3.00
2019-01-28T05:29:41.241Z,3.00
2019-01-28T05:30:45.673Z,3.00
2019-01-28T05:31:50.098Z,3.00
2019-01-28T05:32:54.650Z,3.10
2019-01-28T05:33:59.152Z,3.00
2019-01-28T05:35:03.626Z,3.00
2019-01-28T05:36:08.108Z,3.00
2019-01-28T05:37:14.240Z,2.90
2019-01-28T05:38:18.901Z,2.90
2019-01-28T05:39:23.288Z,2.90
2019-01-28T05:40:27.847Z,2.90
2019-01-28T05:41:32.195Z,3.00
2019-01-28T05:42:36.569Z,3.00
2019-01-28T05:43:42.622Z,3.10
2019-01-28T05:44:47.121Z,3.00
2019-01-28T05:45:53.260Z,3.00
2019-01-28T05:46:57.586Z,3.10
2019-01-28T05:48:01.944Z,3.10
2019-01-28T05:49:07.539Z,3.10
2019-01-28T05:50:13.474Z,3.10
2019-01-28T05:51:18.162Z,3.10
2019-01-28T05:52:22.664Z,3.20
2019-01-28T05:53:27.357Z,3.10
2019-01-28T05:54:32.709Z,3.10
2019-01-28T05:55:37.987Z,3.10
2019-01-28T05:56:42.673Z,3.20
2019-01-28T05:57:47.255Z,3.20
2019-01-28T05:58:51.876Z,3.10
2019-01-28T05:59:56.223Z,3.20
2019-01-28T06:01:00.694Z,3.20
2019-01-28T06:02:05.498Z,3.20
2019-01-28T06:03:10.080Z,3.20
2019-01-28T06:04:14.934Z,3.20
2019-01-28T06:05:19.603Z,3.20
2019-01-28T06:06:24.097Z,3.20
2019-01-28T06:07:28.782Z,3.20
2019-01-28T06:08:33.866Z,3.20
2019-01-28T06:09:39.228Z,3.20
2019-01-28T06:10:44.239Z,3.20
2019-01-28T06:11:51.604Z,3.20
2019-01-28T06:12:56.092Z,3.30
2019-01-28T06:14:00.544Z,3.30
2019-01-28T06:15:06.119Z,3.20
2019-01-28T06:16:14.023Z,3.20
2019-01-28T06:17:20.978Z,3.30
2019-01-28T06:18:27.620Z,3.30
2019-01-28T06:19:34.304Z,3.30
2019-01-28T06:21:05.569Z,3.20
2019-01-28T06:22:28.851Z,3.30
2019-01-28T06:23:57.803Z,3.30
2019-01-28T06:25:35.838Z,3.20
2019-01-28T06:27:10.633Z,3.10
2019-01-28T07:40:14.284Z,3.70
2019-01-28T07:41:20.690Z,3.80
2019-01-28T07:50:51.274Z,3.80
2019-01-28T07:51:56.000Z,3.90
2019-01-28T07:53:07.193Z,3.90
2019-01-28T07:54:13.911Z,3.90
2019-01-28T07:55:18.467Z,3.90
2019-01-28T07:56:23.128Z,3.90
2019-01-28T07:57:29.781Z,3.90
2019-01-28T07:58:34.321Z,4.00
2019-01-28T07:59:38.834Z,4.00
2019-01-28T08:00:46.811Z,3.90
2019-01-28T08:01:51.313Z,4.00
2019-01-28T08:02:55.863Z,3.90
2019-01-28T08:04:04.709Z,4.00
2019-01-28T08:05:40.686Z,4.00
2019-01-28T08:07:02.793Z,4.00
2019-01-28T08:09:04.656Z,4.00
2019-01-28T08:09:34.780Z,4.10
2019-01-28T08:10:41.217Z,4.10
2019-01-28T08:11:45.640Z,4.20
2019-01-28T08:13:28.512Z,4.20
2019-01-28T08:14:33.255Z,4.20
2019-01-28T08:15:57.423Z,4.20
2019-01-28T08:19:18.370Z,4.20
2019-01-28T08:20:31.937Z,4.20
2019-01-28T09:05:59.337Z,4.70
2019-01-28T09:07:06.208Z,4.70
2019-01-28T09:08:13.002Z,4.70
2019-01-28T09:09:17.438Z,4.70
2019-01-28T09:10:23.901Z,4.70
2019-01-28T09:11:47.288Z,4.70
2019-01-28T09:12:52.162Z,4.70
2019-01-28T09:13:56.675Z,4.70
2019-01-28T09:15:02.881Z,4.70
2019-01-28T09:16:07.616Z,4.70
2019-01-28T09:17:12.200Z,4.70
2019-01-28T09:18:16.686Z,4.70
2019-01-28T09:19:21.277Z,4.70
2019-01-28T09:20:25.774Z,4.70
2019-01-28T09:21:30.440Z,4.60
2019-01-28T09:22:36.918Z,4.70
2019-01-28T09:23:41.441Z,4.70
2019-01-28T09:24:48.761Z,4.60
2019-01-28T09:25:53.225Z,4.60
2019-01-28T09:26:57.661Z,4.60
2019-01-28T09:28:02.084Z,4.60
2019-01-28T09:29:17.378Z,4.60
2019-01-28T09:30:24.432Z,4.60
2019-01-28T09:31:29.112Z,4.60
2019-01-28T09:32:33.626Z,4.50
2019-01-28T09:33:38.069Z,4.50
2019-01-28T09:34:42.486Z,4.50
2019-01-28T09:35:47.107Z,4.50
2019-01-28T09:36:51.583Z,4.60
2019-01-28T09:37:56.081Z,4.60
2019-01-28T09:39:01.658Z,4.60
2019-01-28T09:40:07.700Z,4.60
2019-01-28T09:41:12.542Z,4.60
2019-01-28T09:42:17.143Z,4.60
2019-01-28T09:43:21.768Z,4.60
2019-01-28T09:44:26.188Z,4.60
2019-01-28T09:45:33.156Z,4.60
2019-01-28T09:46:37.592Z,4.70
2019-01-28T09:47:41.975Z,4.70
2019-01-28T09:48:46.428Z,4.70
2019-01-28T09:49:50.973Z,4.80
2019-01-28T09:50:55.653Z,4.80
2019-01-28T09:52:00.204Z,4.90
2019-01-28T09:53:05.059Z,4.80
2019-01-28T09:54:20.709Z,4.80
2019-01-28T09:55:25.536Z,4.80
2019-01-28T09:56:29.983Z,4.70
2019-01-28T09:57:34.796Z,4.80
2019-01-28T09:58:39.169Z,4.80
2019-01-28T09:59:43.636Z,4.80
2019-01-28T10:00:50.256Z,4.80
2019-01-28T10:01:54.798Z,4.80
2019-01-28T10:02:59.495Z,4.90
2019-01-28T10:04:05.460Z,4.90
2019-01-28T10:05:11.167Z,4.90
2019-01-28T10:06:15.686Z,4.90
2019-01-28T10:07:20.111Z,4.90
2019-01-28T10:08:24.502Z,5.00
2019-01-28T10:09:28.871Z,4.90
2019-01-28T10:10:33.369Z,5.00
2019-01-28T10:11:37.764Z,4.90
2019-01-28T10:12:42.229Z,4.90
2019-01-28T10:13:47.545Z,4.90
2019-01-28T10:14:51.993Z,4.90
2019-01-28T10:15:57.003Z,4.90
2019-01-28T10:17:01.746Z,4.90
2019-01-28T10:18:07.737Z,4.90
2019-01-28T10:19:14.066Z,5.00
2019-01-28T10:20:24.479Z,4.90
2019-01-28T10:21:30.143Z,5.00
2019-01-28T10:22:34.581Z,5.00
2019-01-28T10:23:39.058Z,5.00
2019-01-28T10:24:43.935Z,5.00
2019-01-28T10:25:48.821Z,5.00
2019-01-28T10:26:54.633Z,5.00
2019-01-28T10:27:59.458Z,5.00
2019-01-28T10:29:04.783Z,5.00
2019-01-28T10:30:11.251Z,5.10
2019-01-28T10:31:15.756Z,5.10
2019-01-28T10:32:20.226Z,5.10
2019-01-28T10:33:24.597Z,5.10
2019-01-28T10:34:29.040Z,5.10
2019-01-28T10:35:33.721Z,5.10
2019-01-28T10:36:38.148Z,5.10
2019-01-28T10:37:42.730Z,5.20
2019-01-28T10:38:47.210Z,5.10
2019-01-28T10:39:51.926Z,5.10
2019-01-28T10:40:56.463Z,5.20
2019-01-28T10:42:00.945Z,5.20
2019-01-28T10:43:10.019Z,5.20
2019-01-28T10:44:14.870Z,5.20
2019-01-28T10:45:19.861Z,5.10
2019-01-28T10:46:24.240Z,5.20
2019-01-28T10:47:28.776Z,5.20
2019-01-28T10:48:33.349Z,5.20
2019-01-28T10:49:37.865Z,5.20
2019-01-28T10:50:47.728Z,5.30
2019-01-28T10:51:55.128Z,5.30
2019-01-28T10:52:59.624Z,5.30
2019-01-28T10:54:04.207Z,5.30
2019-01-28T10:55:09.043Z,5.30
2019-01-28T10:56:15.843Z,5.30
2019-01-28T10:57:20.351Z,5.30
2019-01-28T10:58:24.721Z,5.40
2019-01-28T10:59:29.185Z,5.30
2019-01-28T11:00:48.198Z,5.40
2019-01-28T11:01:52.559Z,5.40
2019-01-28T11:02:57.508Z,5.40
2019-01-28T11:04:01.890Z,5.40
2019-01-28T11:05:06.798Z,5.50
2019-01-28T11:08:45.725Z,5.60
2019-01-28T11:09:51.374Z,5.60
2019-01-28T11:10:56.110Z,5.60
2019-01-28T11:12:01.482Z,5.60
2019-01-28T11:13:06.593Z,5.60
2019-01-28T11:14:16.757Z,5.60
2019-01-28T11:16:25.639Z,5.70
2019-01-28T11:17:30.670Z,5.70
2019-01-28T11:18:35.922Z,5.70
2019-01-28T11:19:40.441Z,5.70
2019-01-28T11:20:45.384Z,5.60
2019-01-28T11:21:54.195Z,5.70
2019-01-28T11:22:59.175Z,5.70
2019-01-28T11:24:04.278Z,5.80
2019-01-28T11:25:15.131Z,5.90
2019-01-28T11:26:20.829Z,5.90
2019-01-28T11:27:25.346Z,6.00
2019-01-28T11:28:30.279Z,6.00
2019-01-28T11:29:34.750Z,6.00
2019-01-28T11:30:46.141Z,5.90
2019-01-28T11:31:50.608Z,5.80
2019-01-28T11:32:55.204Z,5.80
2019-01-28T11:34:01.820Z,5.80
2019-01-28T11:35:06.473Z,5.80
2019-01-28T11:36:12.799Z,5.70
2019-01-28T11:37:18.310Z,5.70
2019-01-28T11:38:23.381Z,5.70
2019-01-28T11:39:28.116Z,5.70
2019-01-28T11:40:32.600Z,5.70
2019-01-28T11:41:37.109Z,5.60
2019-01-28T11:42:41.674Z,5.60
2019-01-28T11:43:46.704Z,5.60
2019-01-28T11:44:51.395Z,5.60
2019-01-28T11:45:58.464Z,5.50
2019-01-28T11:47:02.838Z,5.60
2019-01-28T11:48:08.269Z,5.50
2019-01-28T11:49:12.908Z,5.40
2019-01-28T11:50:17.869Z,5.40
2019-01-28T11:51:22.270Z,5.40
2019-01-28T11:52:26.728Z,5.30
2019-01-28T11:53:31.122Z,5.30
2019-01-28T11:54:35.657Z,5.30
2019-01-28T11:55:40.135Z,5.30
2019-01-28T11:56:44.511Z,5.20
2019-01-28T11:57:48.917Z,5.30
2019-01-28T11:58:53.546Z,5.40
2019-01-28T11:59:59.799Z,5.40
2019-01-28T12:01:30.174Z,5.40
2019-01-28T12:02:36.682Z,5.40
2019-01-28T12:03:41.772Z,5.30
2019-01-28T12:05:10.236Z,5.40
2019-01-28T12:06:18.197Z,5.40
2019-01-28T12:07:23.272Z,5.30
2019-01-28T12:08:28.034Z,5.30
2019-01-28T12:09:32.633Z,5.20
2019-01-28T12:10:37.170Z,5.20
2019-01-28T12:11:41.566Z,5.10
2019-01-28T12:12:47.102Z,5.10
2019-01-28T12:13:51.683Z,5.10
2019-01-28T12:14:56.997Z,5.00
2019-01-28T12:16:01.425Z,4.90
2019-01-28T12:17:06.137Z,4.90
2019-01-28T12:18:12.058Z,4.80
2019-01-28T12:19:16.414Z,4.80
2019-01-28T12:20:21.272Z,4.80
2019-01-28T12:21:32.732Z,4.80
2019-01-28T12:22:39.166Z,4.80
2019-01-28T12:23:43.822Z,4.70
2019-01-28T12:24:48.331Z,4.70
2019-01-28T12:25:54.037Z,4.70
2019-01-28T12:26:58.915Z,4.60
2019-01-28T12:28:03.426Z,4.60
2019-01-28T12:29:08.065Z,4.60
2019-01-28T12:30:17.838Z,4.60
2019-01-28T12:31:22.253Z,4.60
2019-01-28T12:32:27.611Z,4.50
2019-01-28T12:33:33.045Z,4.50
2019-01-28T12:34:39.798Z,4.60
2019-01-28T12:35:46.566Z,4.50
2019-01-28T12:36:50.971Z,4.50
2019-01-28T12:37:55.728Z,4.50
2019-01-28T12:39:01.017Z,4.50
2019-01-28T12:40:06.894Z,4.50
2019-01-28T12:43:17.034Z,4.40
2019-01-28T12:44:26.579Z,4.50
2019-01-28T12:45:30.800Z,4.50
2019-01-28T12:46:35.229Z,4.50
2019-01-28T12:47:54.160Z,4.50
2019-01-28T12:48:55.142Z,4.50
2019-01-28T12:49:59.580Z,4.50
2019-01-28T12:51:04.400Z,4.50
2019-01-28T12:52:08.981Z,4.50
2019-01-28T12:53:13.506Z,4.50
2019-01-28T12:54:22.766Z,4.50
2019-01-28T12:55:27.388Z,4.50
2019-01-28T12:56:31.775Z,4.50
2019-01-28T12:57:36.248Z,4.50
2019-01-28T12:58:40.678Z,4.50
2019-01-28T12:59:45.210Z,4.50
2019-01-28T13:00:55.333Z,4.50
2019-01-28T13:01:59.954Z,4.40
2019-01-28T13:03:04.960Z,4.40
2019-01-28T13:04:09.512Z,4.30
2019-01-28T13:05:14.945Z,4.40
2019-01-28T13:06:19.423Z,4.40
2019-01-28T13:07:23.944Z,4.40
2019-01-28T13:08:28.366Z,4.30
2019-01-28T13:09:33.149Z,4.30
2019-01-28T13:10:39.804Z,4.40
2019-01-28T13:11:46.569Z,4.40
2019-01-28T13:12:51.023Z,4.40
2019-01-28T13:13:55.523Z,4.40
2019-01-28T13:14:59.969Z,4.40
2019-01-28T13:16:04.608Z,4.40
2019-01-28T13:17:09.184Z,4.40
2019-01-28T13:18:14.240Z,4.40
2019-01-28T13:19:18.672Z,4.40
2019-01-28T13:20:25.826Z,4.40
2019-01-28T13:21:30.244Z,4.40
2019-01-28T13:22:34.624Z,4.40
2019-01-28T13:23:42.955Z,4.20
2019-01-28T13:24:47.508Z,4.20
2019-01-28T13:25:52.011Z,4.20
2019-01-28T13:26:57.745Z,4.20
2019-01-28T13:28:02.442Z,4.10
2019-01-28T13:29:06.946Z,4.10
2019-01-28T13:30:18.246Z,4.10
2019-01-28T13:31:23.170Z,4.10
2019-01-28T13:32:27.686Z,4.00
2019-01-28T13:33:33.718Z,4.00
2019-01-28T13:34:38.338Z,4.00
2019-01-28T13:35:42.965Z,4.00
2019-01-28T13:36:47.538Z,3.90
2019-01-28T13:37:55.651Z,3.90
2019-01-28T13:39:02.802Z,3.90
2019-01-28T13:40:07.707Z,3.80
2019-01-28T13:41:12.502Z,3.80
2019-01-28T13:42:24.665Z,3.90
2019-01-28T13:43:29.188Z,3.90
2019-01-28T13:44:33.629Z,3.90
2019-01-28T13:45:38.456Z,3.90
2019-01-28T13:46:46.624Z,3.90
2019-01-28T13:47:54.366Z,3.90
2019-01-28T13:48:59.314Z,3.90
2019-01-28T13:50:05.866Z,3.90
2019-01-28T13:51:10.470Z,3.90
2019-01-28T13:52:18.497Z,3.80
2019-01-28T13:53:23.078Z,3.80
2019-01-28T13:54:29.717Z,3.80
2019-01-28T13:55:34.354Z,3.80
2019-01-28T13:56:38.731Z,3.80
2019-01-28T13:57:43.564Z,3.90
2019-01-28T13:58:49.449Z,3.80
2019-01-28T13:59:55.292Z,3.80
2019-01-28T14:00:59.718Z,3.80
2019-01-28T14:02:04.096Z,3.80
2019-01-28T14:03:08.790Z,3.80
2019-01-28T14:04:13.290Z,3.80
2019-01-28T14:05:17.921Z,3.80
2019-01-28T14:06:23.778Z,3.70
2019-01-28T14:07:28.301Z,3.70
2019-01-28T14:08:32.773Z,3.60
2019-01-28T14:09:37.328Z,3.60
2019-01-28T14:10:41.938Z,3.60
2019-01-28T14:11:46.339Z,3.60
2019-01-28T14:12:50.934Z,3.60
2019-01-28T14:13:55.497Z,3.60
2019-01-28T14:15:00.052Z,3.60
2019-01-28T14:16:04.690Z,3.60
2019-01-28T14:17:09.252Z,3.70
2019-01-28T14:18:14.001Z,3.60
2019-01-28T14:19:18.469Z,3.60
2019-01-28T14:20:23.369Z,3.60
2019-01-28T14:21:28.014Z,3.60
2019-01-28T14:22:32.617Z,3.60
2019-01-28T14:23:37.194Z,3.60
2019-01-28T14:24:41.909Z,3.60
2019-01-28T14:25:46.372Z,3.70
2019-01-28T14:26:50.998Z,3.60
2019-01-28T14:27:55.618Z,3.60
2019-01-28T14:29:00.217Z,3.60
2019-01-28T14:30:05.885Z,3.70
2019-01-28T14:31:10.579Z,3.70
2019-01-28T14:32:15.375Z,3.70
2019-01-28T14:33:19.911Z,3.70
2019-01-28T14:34:26.162Z,3.70
2019-01-28T14:35:30.693Z,3.70
2019-01-28T14:36:35.136Z,3.70
2019-01-28T14:37:43.053Z,3.70
2019-01-28T14:38:47.542Z,3.70
2019-01-28T14:39:52.521Z,3.70
2019-01-28T14:40:57.216Z,3.60
2019-01-28T14:42:01.720Z,3.60
2019-01-28T14:43:06.272Z,3.60
2019-01-28T14:44:13.538Z,3.60
2019-01-28T14:45:17.168Z,3.60
2019-01-28T14:46:21.856Z,3.50
2019-01-28T14:47:26.273Z,3.60
2019-01-28T14:48:30.709Z,3.60
2019-01-28T14:49:35.185Z,3.60
2019-01-28T14:50:40.060Z,3.60
2019-01-28T14:51:44.689Z,3.60
2019-01-28T14:52:49.227Z,3.60
2019-01-28T14:53:53.621Z,3.50
2019-01-28T14:55:01.150Z,3.50
2019-01-28T14:56:06.257Z,3.50
2019-01-28T14:57:11.053Z,3.50
2019-01-28T14:58:16.727Z,3.50
2019-01-28T14:59:21.385Z,3.50
2019-01-28T15:00:28.598Z,3.50
2019-01-28T15:01:33.207Z,3.40
2019-01-28T15:02:37.619Z,3.40
2019-01-28T15:03:42.223Z,3.30
2019-01-28T15:04:46.660Z,3.30
2019-01-28T15:05:51.257Z,3.30
2019-01-28T15:06:57.187Z,3.30
2019-01-28T15:08:01.594Z,3.30
2019-01-28T15:09:11.292Z,3.30
2019-01-28T15:10:16.974Z,3.30
2019-01-28T15:11:21.523Z,3.30
2019-01-28T15:12:26.260Z,3.30
2019-01-28T15:13:30.704Z,3.30
2019-01-28T15:14:36.687Z,3.20
2019-01-28T15:18:24.323Z,3.10
2019-01-28T15:19:29.818Z,3.20
2019-01-28T15:20:34.536Z,3.20
2019-01-28T15:21:39.383Z,3.10
2019-01-28T15:22:43.985Z,3.10
2019-01-28T15:23:48.645Z,3.10
2019-01-28T15:24:53.046Z,3.10
2019-01-28T15:25:58.079Z,3.20
2019-01-28T15:27:02.563Z,3.10
2019-01-28T15:28:07.145Z,3.10
2019-01-28T15:29:11.851Z,3.10
2019-01-28T15:30:21.600Z,3.10
2019-01-28T15:31:26.141Z,3.10
2019-01-28T15:32:30.568Z,3.10
2019-01-28T15:33:35.165Z,3.10
2019-01-28T15:34:39.768Z,3.10
2019-01-28T15:35:44.345Z,3.10
2019-01-28T15:36:48.804Z,3.10
2019-01-28T15:37:53.227Z,3.10
2019-01-28T15:38:57.854Z,3.00
2019-01-28T15:40:02.400Z,3.00
2019-01-28T15:41:06.752Z,3.00
2019-01-28T15:42:11.364Z,3.00
2019-01-28T15:43:15.801Z,3.00
2019-01-28T15:44:20.600Z,3.00
2019-01-28T15:45:30.622Z,3.00
2019-01-28T15:46:35.187Z,3.00
2019-01-28T15:47:39.968Z,2.90
2019-01-28T15:48:44.431Z,2.90
2019-01-28T15:49:48.980Z,3.00
2019-01-28T15:50:53.578Z,2.90
2019-01-28T15:51:58.174Z,2.90
2019-01-28T15:53:02.713Z,2.80
2019-01-28T15:54:07.340Z,2.80
2019-01-28T15:55:14.841Z,2.80
2019-01-28T15:56:19.557Z,2.80
2019-01-28T15:57:24.101Z,2.90
2019-01-28T15:58:28.618Z,2.80
2019-01-28T15:59:33.200Z,2.80
2019-01-28T16:00:38.139Z,2.90
2019-01-28T16:01:42.747Z,2.90
2019-01-28T16:02:47.214Z,2.90
2019-01-28T16:03:53.289Z,2.80
2019-01-28T16:05:00.693Z,2.80
2019-01-28T16:06:05.295Z,2.80
2019-01-28T16:07:09.944Z,2.80
2019-01-28T16:08:14.457Z,2.70
2019-01-28T16:09:18.878Z,2.70
2019-01-28T16:10:23.481Z,2.70
2019-01-28T16:11:28.045Z,2.80
2019-01-28T16:12:32.745Z,2.70
2019-01-28T16:13:37.181Z,2.70
2019-01-28T16:14:41.750Z,2.70
2019-01-28T16:15:50.706Z,2.70
2019-01-28T16:16:55.346Z,2.70
2019-01-28T16:17:59.944Z,2.60
2019-01-28T16:19:04.633Z,2.60
2019-01-28T16:20:09.811Z,2.60
2019-01-28T16:21:14.344Z,2.60
2019-01-28T16:22:24.613Z,2.60
2019-01-28T16:30:36.245Z,2.50
2019-01-28T16:31:40.739Z,2.50
2019-01-28T16:32:45.325Z,2.50
2019-01-28T16:33:49.854Z,2.50
2019-01-28T16:34:54.478Z,2.40
2019-01-28T16:35:59.042Z,2.50
2019-01-28T16:37:03.650Z,2.40
2019-01-28T16:38:08.121Z,2.30
2019-01-28T16:39:12.790Z,2.30
2019-01-28T16:40:18.645Z,2.30
2019-01-28T16:41:23.135Z,2.30
2019-01-28T16:42:27.674Z,2.30
2019-01-28T16:43:32.236Z,2.30
2019-01-28T16:44:36.678Z,2.30
2019-01-28T16:45:41.302Z,2.30
2019-01-28T16:46:46.188Z,2.30
2019-01-28T16:47:50.604Z,2.30
2019-01-28T16:48:55.258Z,2.30
2019-01-28T16:49:59.723Z,2.30
2019-01-28T16:51:04.269Z,2.30
2019-01-28T16:52:08.871Z,2.30
2019-01-28T16:53:13.672Z,2.30
2019-01-28T16:54:18.510Z,2.30